»·PEaware :: N79429 KSBA-KBUR

N79429 :: KSBA-KBUR

FLIGHT INFORMATION

Flight Status: Arrived
Operator: Privately registered:
United States
More flights under this callsign
Pilot: Nick K. (20390)
Aircraft: CESSNA 172 SKYHAWK
(C172)
More flights by this aircraft type
Origin: KSBA Santa Barbara Mun
United States
Destination: KBUR Bob Hope-Burbank
United States
More flights between these airports :: More routes between these airports
Route: +
File this flight plan on PilotEdge
Remarks:
Altitude:
(Current/Filed)
7,500ft
Speed:
(Current/Filed)
0kts
Departed: 09-Oct-18 07:01 PM
Arrived: 09-Oct-18 08:15 PM
Distance/Time
Traveled:
75nm/1:14
Distance/Time
To Go:
Arrived

Flight Plot

Page will automatically refresh every two minutes.


Map Options




Map Legend


Flown Route
Filed Route
Departure Airport
Arrival Airport
Navaid (VOR, NDB)
Fix

Horizontal Profiles

Position Reports

Time Latitude Longitude Heading Altitude Ground
Speed
09-Oct-18 18:52 34.422571 -119.836340 277 11ft 0kts
09-Oct-18 18:53 34.422571 -119.836340 277 11ft 0kts
09-Oct-18 18:54 34.422571 -119.836340 277 11ft 0kts
09-Oct-18 18:55 34.422571 -119.836340 277 11ft 0kts
09-Oct-18 18:56 34.422571 -119.836340 277 11ft 0kts
09-Oct-18 18:57 34.422718 -119.836795 248 12ft 0kts
09-Oct-18 18:58 34.425259 -119.837894 343 12ft 10kts
09-Oct-18 18:59 34.426742 -119.836870 86 10ft 9kts
09-Oct-18 19:00 34.427116 -119.835331 13 10ft 0kts
09-Oct-18 19:01 34.427116 -119.835331 13 10ft 0kts
09-Oct-18 19:02 34.427116 -119.835331 14 10ft 0kts
09-Oct-18 19:03 34.427713 -119.845586 273 170ft 79kts
09-Oct-18 19:04 34.426936 -119.872735 265 1134ft 80kts
09-Oct-18 19:05 34.424160 -119.900289 264 1929ft 96kts
09-Oct-18 19:06 34.417306 -119.934967 258 2020ft 107kts
09-Oct-18 19:07 34.411304 -119.971896 259 2064ft 114kts
09-Oct-18 19:08 34.405407 -120.007829 243 1879ft 113kts
09-Oct-18 19:09 34.379062 -120.005612 156 1469ft 106kts
09-Oct-18 19:10 34.350754 -119.993523 148 1582ft 98kts
09-Oct-18 19:11 34.342974 -119.966898 88 2610ft 81kts
09-Oct-18 19:12 34.338601 -119.936383 99 3368ft 98kts
09-Oct-18 19:13 34.332259 -119.904427 95 4180ft 99kts
09-Oct-18 19:14 34.323622 -119.872691 98 4957ft 98kts
09-Oct-18 19:15 34.318933 -119.838531 96 5440ft 120kts
09-Oct-18 19:16 34.309885 -119.798695 108 5515ft 126kts
09-Oct-18 19:17 34.297158 -119.759502 99 5545ft 128kts
09-Oct-18 19:18 34.297832 -119.718075 95 5584ft 124kts
09-Oct-18 19:19 34.290941 -119.676819 105 5620ft 125kts
09-Oct-18 19:20 34.273394 -119.640157 95 5551ft 128kts
09-Oct-18 19:21 34.271197 -119.598661 83 5625ft 124kts
09-Oct-18 19:22 34.269841 -119.557272 99 5682ft 123kts
09-Oct-18 19:23 34.262807 -119.515963 95 5683ft 125kts
09-Oct-18 19:24 34.263637 -119.474964 76 5698ft 124kts
09-Oct-18 19:25 34.267915 -119.433704 80 5800ft 123kts
09-Oct-18 19:26 34.273122 -119.394899 75 6361ft 115kts
09-Oct-18 19:27 34.282719 -119.359318 71 6964ft 112kts
09-Oct-18 19:28 34.276971 -119.331157 119 7345ft 120kts
09-Oct-18 19:29 34.272419 -119.322809 119 7430ft 123kts
09-Oct-18 19:30 34.253697 -119.288453 125 7568ft 126kts
09-Oct-18 19:31 34.236427 -119.252208 108 7535ft 125kts
09-Oct-18 19:32 34.233637 -119.219018 74 7536ft 119kts
09-Oct-18 19:33 34.243795 -119.174770 83 7546ft 119kts
09-Oct-18 19:34 34.238555 -119.135108 101 7559ft 122kts
09-Oct-18 19:35 34.226456 -119.097340 110 7590ft 121kts
09-Oct-18 19:36 34.217006 -119.058912 97 7571ft 122kts
09-Oct-18 19:37 34.215532 -119.050897 102 7574ft 122kts
09-Oct-18 19:38 34.215532 -119.050897 102 7574ft 122kts
09-Oct-18 19:39 34.215532 -119.050897 102 7574ft 122kts
09-Oct-18 19:40 34.215532 -119.050897 102 7574ft 122kts
09-Oct-18 19:41 34.215532 -119.050897 102 7574ft 122kts
09-Oct-18 19:42 34.215532 -119.050897 102 7574ft 122kts
09-Oct-18 19:43 34.215532 -119.050897 102 7574ft 122kts
09-Oct-18 19:44 34.215532 -119.050897 102 7574ft 122kts
09-Oct-18 19:45 34.206404 -119.029613 123 7570ft 124kts
09-Oct-18 19:46 34.182785 -118.998192 139 7416ft 137kts
09-Oct-18 19:47 34.164942 -118.960755 106 7478ft 130kts
09-Oct-18 19:48 34.153014 -118.918279 108 7359ft 136kts
09-Oct-18 19:49 34.142290 -118.873223 102 7091ft 143kts
09-Oct-18 19:50 34.133622 -118.826624 111 6477ft 126kts
09-Oct-18 19:51 34.135550 -118.784897 83 5985ft 121kts
09-Oct-18 19:52 34.134626 -118.742920 92 5734ft 126kts
09-Oct-18 19:53 34.144600 -118.700306 73 4472ft 137kts
09-Oct-18 19:54 34.149395 -118.658212 99 4221ft 134kts
09-Oct-18 19:55 34.148312 -118.616083 93 4990ft 109kts
09-Oct-18 19:56 34.142455 -118.579511 106 5831ft 101kts
09-Oct-18 19:57 34.137050 -118.552408 97 6293ft 110kts
09-Oct-18 20:09 34.296909 -118.510115 12 3796ft 106kts
09-Oct-18 20:10 34.308409 -118.484707 133 3581ft 94kts
09-Oct-18 20:11 34.296400 -118.458218 110 2983ft 91kts
09-Oct-18 20:12 34.294243 -118.428828 108 2894ft 91kts
09-Oct-18 20:13 34.283723 -118.400934 120 3653ft 87kts
09-Oct-18 20:14 34.268710 -118.375136 139 3246ft 94kts
09-Oct-18 20:15 34.246365 -118.366130 186 2763ft 82kts
09-Oct-18 20:16 34.224316 -118.363275 173 1601ft 73kts
09-Oct-18 20:17 34.208214 -118.359187 168 751ft 36kts
09-Oct-18 20:18 34.206500 -118.358090 82 740ft 0kts

Navigation Log

Ident Type
1. KSBA Airport
2. KBUR Airport